Time;durP1;ratioP1;P1;durP2;ratioP2;P2;SDS_P1;SDS_P2;PMS_P1;PMS_P2;Temp;Humidity;BMP_temperature;BMP_pressure;BME280_temperature;BME280_humidity;BME280_pressure;Samples;Min_cycle;Max_cycle;Signal;HPM_P1;HPM_P2
2023/03/21 00:01:17;;;;;;;0.90;0.90;;;;;;;;;;5032101;28;20484;-68
2023/03/21 00:03:45;;;;;;;0.80;0.80;;;;;;;;;;5030197;28;20546;-68
2023/03/21 00:06:13;;;;;;;0.80;0.80;;;;;;;;;;5031869;28;20439;-68
2023/03/21 00:08:43;;;;;;;1.00;0.60;;;;;;;;;;5030162;28;20423;-68
2023/03/21 00:11:11;;;;;;;1.92;1.30;;;;;;;;;;5030517;28;20460;-68
2023/03/21 00:13:41;;;;;;;0.70;0.70;;;;;;;;;;5031683;28;20779;-68
2023/03/21 00:16:14;;;;;;;1.75;1.05;;;;;;;;;;5031557;28;20427;-68
2023/03/21 00:18:51;;;;;;;0.65;0.65;;;8.00;99.90;;;;;;5029814;28;20423;-68
2023/03/21 00:21:20;;;;;;;0.38;0.38;;;6.90;99.90;;;;;;5032000;28;20434;-68
2023/03/21 00:24:07;;;;;;;0.70;0.70;;;6.90;99.90;;;;;;5031260;28;20438;-68
2023/03/21 00:26:34;;;;;;;0.50;0.50;;;6.90;99.90;;;;;;5029574;28;21003;-68
2023/03/21 00:29:01;;;;;;;0.77;0.77;;;;;;;;;;5031509;28;20517;-68
2023/03/21 00:31:29;;;;;;;0.80;0.80;;;;;;;;;;5031181;28;20430;-68
2023/03/21 00:33:56;;;;;;;5.85;1.30;;;;;;;;;;5030879;28;20426;-68
2023/03/21 00:36:26;;;;;;;0.82;0.82;;;;;;;;;;5028834;28;20882;-68
2023/03/21 00:38:53;;;;;;;1.02;0.57;;;;;;;;;;5031365;28;21016;-68
2023/03/21 00:41:21;;;;;;;0.68;0.68;;;;;;;;;;5029622;28;20444;-68
2023/03/21 00:44:07;;;;;;;0.90;0.70;;;;;;;;;;5030655;28;20431;-68
2023/03/21 00:46:35;;;;;;;1.00;1.00;;;;;;;;;;5031330;28;20422;-68
2023/03/21 00:49:19;;;;;;;0.80;0.80;;;;;;;;;;5030163;28;20438;-68
2023/03/21 00:51:50;;;;;;;0.73;0.73;;;;;;;;;;5029111;28;20470;-68
2023/03/21 00:54:18;;;;;;;0.90;0.70;;;;;;;;;;5030734;28;20487;-68
2023/03/21 00:56:45;;;;;;;0.85;0.57;;;;;;;;;;5031064;28;20517;-68
2023/03/21 00:59:12;;;;;;;0.55;0.55;;;;;;;;;;5030089;28;20423;-68
2023/03/21 01:01:39;;;;;;;0.93;0.93;;;;;;;;;;5030580;28;20455;-68
2023/03/21 01:04:12;;;;;;;2.90;0.82;;;;;;;;;;5030582;28;20518;-68
2023/03/21 01:06:41;;;;;;;0.60;0.55;;;;;;;;;;5030651;28;20427;-68
2023/03/21 01:09:12;;;;;;;0.90;0.60;;;;;;;;;;5028780;28;20427;-68
2023/03/21 01:11:40;;;;;;;0.73;0.73;;;;;;;;;;5029473;28;20431;-68
2023/03/21 01:14:08;;;;;;;2.03;0.52;;;;;;;;;;5030607;28;20505;-68
2023/03/21 01:16:49;;;;;;;1.33;1.13;;;;;;;;;;5030669;28;20522;-68
2023/03/21 01:19:18;;;;;;;0.82;0.82;;;;;;;;;;5030422;28;20438;-68
2023/03/21 01:21:53;;;;;;;0.65;0.65;;;;;;;;;;5030886;28;20858;-68
2023/03/21 01:24:21;;;;;;;0.60;0.50;;;;;;;;;;5028450;28;20999;-68
2023/03/21 01:26:48;;;;;;;2.08;0.70;;;;;;;;;;5030182;28;20518;-68
2023/03/21 01:29:15;;;;;;;1.80;0.75;;;6.80;99.90;;;;;;5025118;28;20547;-68
2023/03/21 01:31:42;;;;;;;0.90;0.90;;;;;;;;;;5029387;28;20438;-68
2023/03/21 01:34:09;;;;;;;0.60;0.60;;;;;;;;;;5030269;28;20430;-68
2023/03/21 01:36:37;;;;;;;0.43;0.43;;;;;;;;;;5030320;28;20434;-68
2023/03/21 01:39:05;;;;;;;1.20;0.77;;;;;;;;;;5030134;28;20935;-68
2023/03/21 01:41:37;;;;;;;0.80;0.80;;;;;;;;;;5028358;28;20438;-69
2023/03/21 01:44:14;;;;;;;0.68;0.60;;;;;;;;;;5029669;28;20932;-68
2023/03/21 01:46:48;;;;;;;0.60;0.57;;;;;;;;;;5028708;28;20436;-69
2023/03/21 01:49:37;;;;;;;1.00;0.60;;;;;;;;;;5029223;28;20429;-68
2023/03/21 01:52:06;;;;;;;0.88;0.88;;;;;;;;;;5027365;28;20435;-68
2023/03/21 01:54:42;;;;;;;0.50;0.50;;;;;;;;;;5029166;28;20427;-68
2023/03/21 01:57:12;;;;;;;1.00;0.80;;;;;;;;;;5030100;28;20427;-68
2023/03/21 01:59:50;;;;;;;2.00;1.08;;;;;;;;;;5028050;28;20505;-68
2023/03/21 02:02:26;;;;;;;0.60;0.60;;;;;;;;;;5010027;28;20440;-68
2023/03/21 02:05:02;;;;;;;0.50;0.50;;;;;;;;;;5017815;28;20442;-68
2023/03/21 02:07:34;;;;;;;4.80;1.25;;;;;;;;;;5029673;28;20518;-68
2023/03/21 02:10:07;;;;;;;0.85;0.77;;;;;;;;;;5028049;28;21494;-68
2023/03/21 02:12:37;;;;;;;1.45;0.82;;;;;;;;;;5029543;28;20435;-69
2023/03/21 02:15:06;;;;;;;0.80;0.80;;;6.40;99.90;;;;;;5027739;28;20449;-68
2023/03/21 02:17:45;;;;;;;0.68;0.65;;;;;;;;;;5029682;28;20522;-68
2023/03/21 02:20:25;;;;;;;1.00;0.80;;;;;;;;;;5028769;28;20426;-69
2023/03/21 02:22:52;;;;;;;1.80;0.77;;;;;;;;;;5029660;28;20442;-69
2023/03/21 02:25:38;;;;;;;0.50;0.50;;;;;;;;;;5029323;28;20438;-68
2023/03/21 02:28:12;;;;;;;0.68;0.68;;;;;;;;;;5027797;28;20434;-69
2023/03/21 02:30:39;;;;;;;3.03;1.17;;;;;;;;;;5028483;28;20767;-69
2023/03/21 02:33:37;;;;;;;0.90;0.85;;;;;;;;;;5027905;28;20431;-68
2023/03/21 02:36:07;;;;;;;0.70;0.60;;;;;;;;;;5029098;28;20442;-68
2023/03/21 02:38:46;;;;;;;0.98;0.80;;;;;;;;;;5029922;28;20434;-68
2023/03/21 02:41:21;;;;;;;0.55;0.55;;;;;;;;;;5033595;28;20913;-68
2023/03/21 02:44:01;;;;;;;1.05;0.55;;;;;;;;;;5029761;28;20441;-68
2023/03/21 02:46:34;;;;;;;0.80;0.73;;;;;;;;;;5033307;28;20494;-69
2023/03/21 02:49:21;;;;;;;1.10;0.70;;;;;;;;;;5033304;28;20973;-68
2023/03/21 02:51:50;;;;;;;0.40;0.40;;;;;;;;;;5033362;28;20546;-68
2023/03/21 02:54:19;;;;;;;0.70;0.70;;;;;;;;;;5032618;28;20434;-69
2023/03/21 02:57:07;;;;;;;0.75;0.75;;;;;;;;;;5031162;28;20910;-69
2023/03/21 02:59:34;;;;;;;3.10;0.55;;;;;;;;;;5031186;28;20431;-68
2023/03/21 03:02:14;;;;;;;0.57;0.50;;;;;;;;;;5031697;28;20781;-68
2023/03/21 03:04:49;;;;;;;0.80;0.80;;;;;;;;;;5032671;28;20422;-69
2023/03/21 03:07:16;;;;;;;1.15;1.05;;;;;;;;;;5029912;28;20431;-69
2023/03/21 03:09:47;;;;;;;0.98;0.98;;;;;;;;;;5033045;28;20949;-68
2023/03/21 03:12:27;;;;;;;2.30;1.20;;;;;;;;;;5032905;28;20427;-68
2023/03/21 03:15:16;;;;;;;0.60;0.60;;;;;;;;;;5032685;28;20461;-69
2023/03/21 03:17:50;;;;;;;0.50;0.40;;;;;;;;;;5030535;28;20537;-69
2023/03/21 03:20:26;;;;;;;0.67;0.67;;;;;;;;;;5033210;28;20496;-68
2023/03/21 03:22:56;;;;;;;0.90;0.90;;;;;;;;;;5032966;28;20746;-68
2023/03/21 03:25:27;;;;;;;0.82;0.82;;;;;;;;;;5032261;28;20500;-68
2023/03/21 03:28:09;;;;;;;0.68;0.68;;;;;;;;;;5032647;28;20885;-68
2023/03/21 03:30:37;;;;;;;0.80;0.80;;;;;;;;;;5032490;28;20889;-68
2023/03/21 03:33:22;;;;;;;0.85;0.60;;;;;;;;;;5029602;28;20494;-68
2023/03/21 03:35:50;;;;;;;1.63;1.27;;;;;;;;;;5032384;28;20431;-68
2023/03/21 03:38:35;;;;;;;0.93;0.93;;;;;;;;;;5032231;28;20435;-68
2023/03/21 03:41:07;;;;;;;1.60;0.50;;;;;;;;;;5029887;28;20789;-68
2023/03/21 03:43:39;;;;;;;0.90;0.90;;;;;;;;;;5032785;28;20910;-68
2023/03/21 03:46:11;;;;;;;0.67;0.67;;;;;;;;;;5032142;28;20430;-68
2023/03/21 03:48:54;;;;;;;0.80;0.80;;;;;;;;;;5030357;28;20493;-68
2023/03/21 03:51:21;;;;;;;0.82;0.82;;;;;;;;;;5031806;28;20437;-68
2023/03/21 03:54:07;;;;;;;0.65;0.65;;;;;;;;;;5028944;28;20445;-68
2023/03/21 03:56:35;;;;;;;0.50;0.50;;;;;;;;;;5031104;28;20443;-68
2023/03/21 03:59:04;;;;;;;1.00;0.80;;;;;;;;;;5030419;28;20441;-68
2023/03/21 04:01:31;;;;;;;1.30;1.02;;;;;;;;;;5031920;28;20434;-68
2023/03/21 04:03:59;;;;;;;0.98;0.88;;;;;;;;;;5029383;28;20469;-68
2023/03/21 04:06:38;;;;;;;0.60;0.57;;;;;;;;;;5031970;28;20427;-68
2023/03/21 04:09:07;;;;;;;3.70;0.83;;;;;;;;;;5030542;28;20472;-68
2023/03/21 04:11:45;;;;;;;0.73;0.73;;;;;;;;;;5031514;28;20442;-68
2023/03/21 04:14:12;;;;;;;0.43;0.43;;;;;;;;;;5029881;28;20907;-68
2023/03/21 04:16:40;;;;;;;1.43;1.33;;;;;;;;;;5032039;28;20435;-68
2023/03/21 04:19:10;;;;;;;0.45;0.45;;;;;;;;;;5031801;28;20438;-68
2023/03/21 04:21:37;;;;;;;0.50;0.50;;;;;;;;;;5031564;28;20978;-68
2023/03/21 04:24:06;;;;;;;0.80;0.80;;;;;;;;;;5031183;28;20449;-68
2023/03/21 04:26:34;;;;;;;1.98;0.73;;;;;;;;;;5031575;28;20916;-68
2023/03/21 04:29:02;;;;;;;0.57;0.57;;;;;;;;;;5031689;28;20445;-68
2023/03/21 04:31:33;;;;;;;1.45;0.85;;;;;;;;;;5030451;28;20438;-68
2023/03/21 04:34:01;;;;;;;0.77;0.77;;;;;;;;;;5030653;28;20430;-68
2023/03/21 04:36:37;;;;;;;1.20;0.80;;;;;;;;;;5030129;28;20797;-68
2023/03/21 04:39:10;;;;;;;0.90;0.90;;;;;;;;;;5031263;28;20436;-68
2023/03/21 04:41:39;;;;;;;0.68;0.68;;;;;;;;;;5029696;28;20446;-68
2023/03/21 04:44:10;;;;;;;0.60;0.60;;;;;;;;;;5030972;28;20431;-68
2023/03/21 04:46:38;;;;;;;0.63;0.63;;;;;;;;;;5030226;28;20438;-69
2023/03/21 04:49:08;;;;;;;1.20;1.10;;;;;;;;;;5031100;28;21090;-68
2023/03/21 04:51:39;;;;;;;0.87;0.87;;;;;;;;;;5029758;28;20430;-68
2023/03/21 04:54:06;;;;;;;1.20;0.80;;;;;;;;;;5029184;28;20441;-68
2023/03/21 04:56:34;;;;;;;1.75;1.13;;;;;;;;;;5029822;28;20458;-68
2023/03/21 04:59:09;;;;;;;1.02;1.02;;;;;;;;;;5030254;28;20513;-69
2023/03/21 05:01:36;;;;;;;2.03;1.48;;;;;;;;;;5030867;28;20876;-68
2023/03/21 05:04:07;;;;;;;1.02;1.00;;;;;;;;;;5027398;28;20443;-68
2023/03/21 05:06:34;;;;;;;0.70;0.70;;;;;;;;;;5030935;28;20918;-69
2023/03/21 05:09:04;;;;;;;0.88;0.88;;;;;;;;;;5030767;28;20438;-69
2023/03/21 05:11:36;;;;;;;0.80;0.80;;;;;;;;;;5030832;28;20458;-68
2023/03/21 05:14:04;;;;;;;0.88;0.88;;;;;;;;;;5030194;28;20434;-68
2023/03/21 05:16:35;;;;;;;0.70;0.70;;;;;;;;;;5030626;28;20435;-68
2023/03/21 05:19:04;;;;;;;0.80;0.80;;;;;;;;;;5030855;28;20433;-68
2023/03/21 05:21:40;;;;;;;0.68;0.68;;;;;;;;;;5030927;28;20427;-69
2023/03/21 05:24:11;;;;;;;2.45;1.00;;;;;;;;;;5027995;28;20441;-69
2023/03/21 05:26:38;;;;;;;0.80;0.80;;;;;;;;;;5030348;28;20462;-69
2023/03/21 05:29:05;;;;;;;1.20;1.10;;;;;;;;;;5030485;28;20423;-69
2023/03/21 05:31:32;;;;;;;0.77;0.77;;;;;;;;;;5030489;28;20454;-68
2023/03/21 05:34:00;;;;;;;0.98;0.98;;;;;;;;;;5029901;28;20458;-69
2023/03/21 05:36:32;;;;;;;0.60;0.60;;;;;;;;;;5029228;28;20435;-69
2023/03/21 05:39:00;;;;;;;0.70;0.65;;;;;;;;;;5030270;28;20434;-69
2023/03/21 05:41:29;;;;;;;1.63;0.47;;;;;;;;;;5027895;28;21052;-69
2023/03/21 05:43:59;;;;;;;0.73;0.73;;;;;;;;;;5029958;28;20433;-68
2023/03/21 05:46:26;;;;;;;0.70;0.40;;;;;;;;;;5028381;28;20445;-69
2023/03/21 05:48:54;;;;;;;2.35;1.10;;;;;;;;;;5029738;28;21020;-69
2023/03/21 05:51:21;;;;;;;0.68;0.47;;;;;;;;;;5027657;28;20793;-69
2023/03/21 05:53:48;;;;;;;3.50;0.70;;;;;;;;;;5027747;28;20525;-68
2023/03/21 05:56:18;;;;;;;0.68;0.68;;;;;;;;;;5028390;28;20453;-69
2023/03/21 05:58:45;;;;;;;0.63;0.63;;;;;;;;;;5029385;28;20458;-69
2023/03/21 06:01:13;;;;;;;0.93;0.93;;;;;;;;;;5029780;28;20973;-69
2023/03/21 06:03:40;;;;;;;0.90;0.70;;;;;;;;;;5029984;28;20817;-69
2023/03/21 06:06:07;;;;;;;0.73;0.73;;;;;;;;;;5029503;28;20526;-69
2023/03/21 06:08:41;;;;;;;0.63;0.63;;;;;;;;;;5029486;28;21115;-69
2023/03/21 06:11:15;;;;;;;1.83;1.20;;;;;;;;;;5028125;28;20514;-69
2023/03/21 06:13:45;;;;;;;1.25;1.25;;;;;;;;;;5029162;28;20439;-69
2023/03/21 06:16:15;;;;;;;1.15;0.90;;;;;;;;;;5028662;28;20426;-69
2023/03/21 06:18:42;;;;;;;0.95;0.93;;;;;;;;;;5029539;28;20502;-69
2023/03/21 06:21:09;;;;;;;0.95;0.50;;;;;;;;;;5029584;28;20466;-69
2023/03/21 06:23:39;;;;;;;1.45;0.85;;;;;;;;;;5029475;28;20437;-69
2023/03/21 06:26:07;;;;;;;1.10;0.90;;;;;;;;;;5029677;28;20423;-69
2023/03/21 06:28:36;;;;;;;0.90;0.60;;;;;;;;;;5027535;28;20463;-69
2023/03/21 06:31:03;;;;;;;2.80;0.93;;;;;;;;;;5029537;28;20431;-68
2023/03/21 06:33:30;;;;;;;0.70;0.70;;;;;;;;;;5027946;28;20446;-69
2023/03/21 06:35:58;;;;;;;2.88;0.88;;;;;;;;;;5029236;28;20442;-68
2023/03/21 06:38:25;;;;;;;7.80;0.80;;;;;;;;;;5029335;28;20427;-69
2023/03/21 06:40:53;;;;;;;0.90;0.80;;;;;;;;;;5028038;28;20469;-68
2023/03/21 06:43:20;;;;;;;1.33;0.98;;;;;;;;;;5029287;28;20426;-68
2023/03/21 06:45:50;;;;;;;0.73;0.73;;;;;;;;;;5028817;28;20514;-69
2023/03/21 06:48:17;;;;;;;0.80;0.80;;;;;;;;;;5027729;28;20427;-68
2023/03/21 06:50:44;;;;;;;1.15;1.08;;;;;;;;;;5028182;28;20429;-69
2023/03/21 06:53:11;;;;;;;0.50;0.50;;;;;;;;;;5027080;28;20431;-69
2023/03/21 06:55:41;;;;;;;1.08;1.08;;;;;;;;;;5027819;28;21571;-69
2023/03/21 06:58:08;;;;;;;0.80;0.80;;;;;;;;;;5027822;28;20431;-69
2023/03/21 07:00:35;;;;;;;1.00;1.00;;;;;;;;;;5027713;28;20442;-69
2023/03/21 07:03:02;;;;;;;0.88;0.85;;;;;;;;;;5029004;28;20438;-69
2023/03/21 07:05:34;;;;;;;0.60;0.60;;;;;;;;;;5028498;28;21176;-68
2023/03/21 07:08:05;;;;;;;0.55;0.55;;;;;;;;;;5029024;28;20431;-69
2023/03/21 07:10:32;;;;;;;3.45;1.23;;;;;;;;;;5029076;28;20909;-69
2023/03/21 07:13:02;;;;;;;1.73;0.70;;;;;;;;;;5028806;28;20502;-69
2023/03/21 07:15:29;;;;;;;0.75;0.75;;;;;;;;;;5027154;28;20458;-69
2023/03/21 07:17:56;;;;;;;1.40;1.10;;;;;;;;;;5029078;28;20426;-69
2023/03/21 07:20:26;;;;;;;0.93;0.93;;;;;;;;;;5020787;28;20515;-69
2023/03/21 07:22:56;;;;;;;1.33;0.98;;;;;;;;;;5009286;28;20463;-69
2023/03/21 07:25:23;;;;;;;0.80;0.70;;;;;;;;;;5008465;28;20444;-69
2023/03/21 07:27:51;;;;;;;3.60;0.93;;;;;;;;;;5012813;28;20439;-69
2023/03/21 07:30:18;;;;;;;2.38;1.08;;;;;;;;;;5013052;28;20823;-69
2023/03/21 07:32:46;;;;;;;5.80;1.10;;;;;;;;;;5026096;28;20435;-69
2023/03/21 07:35:14;;;;;;;1.50;1.40;;;;;;;;;;5031688;28;20443;-69
2023/03/21 07:37:42;;;;;;;1.10;0.98;;;;;;;;;;5029858;28;20431;-69
2023/03/21 07:40:12;;;;;;;0.60;0.60;;;;;;;;;;5032143;28;20423;-69
2023/03/21 07:42:40;;;;;;;0.90;0.80;;;;;;;;;;5032260;28;20495;-69
2023/03/21 07:45:14;;;;;;;2.95;1.65;;;;;;;;;;5028927;28;20434;-69
2023/03/21 07:47:44;;;;;;;1.23;1.13;;;;;;;;;;5029688;28;20521;-68
2023/03/21 07:50:11;;;;;;;0.90;0.80;;;;;;;;;;5031962;28;20466;-69
2023/03/21 07:52:41;;;;;;;0.60;0.60;;;;;;;;;;5031847;28;20435;-69
2023/03/21 07:55:08;;;;;;;0.53;0.53;;;;;;;;;;5031650;28;20445;-69
2023/03/21 07:57:40;;;;;;;0.82;0.82;;;;;;;;;;5030495;28;20821;-69
2023/03/21 08:00:09;;;;;;;3.08;1.00;;;;;;;;;;5031761;28;20435;-69
2023/03/21 08:02:36;;;;;;;1.10;1.00;;;;;;;;;;5032200;28;20434;-69
2023/03/21 08:05:10;;;;;;;0.67;0.67;;;;;;;;;;5029287;28;20529;-69
2023/03/21 08:07:37;;;;;;;1.23;1.15;;;;;;;;;;5032042;28;21129;-69
2023/03/21 08:10:14;;;;;;;0.90;0.90;;;;;;;;;;5032015;28;20430;-69
2023/03/21 08:12:41;;;;;;;0.90;0.90;;;;;;;;;;5030022;28;20446;-69
2023/03/21 08:15:09;;;;;;;0.95;0.95;;;;;;;;;;5031047;28;20427;-69
2023/03/21 08:17:36;;;;;;;1.65;1.08;;;;;;;;;;5029396;28;20906;-69
2023/03/21 08:20:07;;;;;;;0.80;0.80;;;;;;;;;;5031316;28;21082;-69
2023/03/21 08:22:35;;;;;;;1.92;1.08;;;;;;;;;;5030553;28;20465;-69
2023/03/21 08:25:06;;;;;;;2.17;1.23;;;;;;;;;;5029635;28;20434;-69
2023/03/21 08:27:34;;;;;;;0.82;0.82;;;;;;;;;;5031520;28;20922;-69
2023/03/21 08:30:02;;;;;;;2.17;0.80;;;;;;;;;;5031357;28;20438;-69
2023/03/21 08:32:30;;;;;;;2.63;1.10;;;;;;;;;;5030028;28;20435;-69
2023/03/21 08:35:01;;;;;;;0.93;0.93;;;;;;;;;;5029843;28;20499;-69
2023/03/21 08:37:28;;;;;;;0.98;0.85;;;;;;;;;;5031076;28;20427;-69
2023/03/21 08:39:58;;;;;;;0.80;0.80;;;;;;;;;;5029955;28;20427;-68
2023/03/21 08:42:26;;;;;;;1.92;1.00;;;;;;;;;;5031250;28;20847;-69
2023/03/21 08:44:53;;;;;;;2.20;1.00;;;;;;;;;;5028836;28;20998;-69
2023/03/21 08:47:20;;;;;;;0.85;0.85;;;;;;;;;;5023005;28;20590;-69
2023/03/21 08:49:47;;;;;;;0.88;0.65;;;;;;;;;;5011602;28;20459;-69
2023/03/21 08:52:14;;;;;;;1.63;1.08;;;;;;;;;;5027443;28;20438;-69
2023/03/21 08:54:43;;;;;;;1.27;1.17;;;;;;;;;;5030143;28;20435;-69
2023/03/21 08:57:10;;;;;;;1.38;1.27;;;;;;;;;;5028514;28;20501;-69
2023/03/21 08:59:38;;;;;;;1.10;1.02;;;;;;;;;;5030865;28;20453;-69
2023/03/21 09:02:06;;;;;;;1.45;1.30;;;;;;;;;;5029965;28;20518;-69
2023/03/21 09:04:33;;;;;;;2.30;0.90;;;;;;;;;;5030235;28;20842;-69
2023/03/21 09:07:04;;;;;;;1.55;1.08;;;;;;;;;;5030787;28;20435;-69
2023/03/21 09:09:31;;;;;;;3.63;1.00;;;;;;;;;;5028816;28;20438;-69
2023/03/21 09:11:59;;;;;;;3.80;1.10;;;;;;;;;;5030685;28;21150;-69
2023/03/21 09:14:26;;;;;;;1.13;1.02;;;;;;;;;;5030079;28;20435;-69
2023/03/21 09:16:55;;;;;;;0.40;0.40;;;;;;;;;;5028395;28;20474;-70
2023/03/21 09:19:23;;;;;;;1.30;1.20;;;;;;;;;;5029774;28;20438;-69
2023/03/21 09:21:52;;;;;;;2.00;0.75;;;;;;;;;;5029746;28;20527;-69
2023/03/21 09:24:22;;;;;;;2.10;0.93;;;;;;;;;;5026808;28;20526;-69
2023/03/21 09:26:50;;;;;;;2.72;1.10;;;;;;;;;;5030546;28;20445;-69
2023/03/21 09:29:26;;;;;;;1.80;1.63;;;;;;;;;;5028951;28;20790;-69
2023/03/21 09:31:53;;;;;;;1.33;1.23;;;;;;;;;;5030156;28;20427;-69
2023/03/21 09:34:20;;;;;;;2.22;1.27;;;;;;;;;;5029525;28;20518;-69
2023/03/21 09:36:47;;;;;;;1.27;0.75;;;;;;;;;;5030082;28;20434;-69
2023/03/21 09:39:17;;;;;;;0.68;0.68;;;;;;;;;;5028948;28;20431;-69
2023/03/21 09:41:58;;;;;;;3.65;1.33;;;;;;;;;;5028266;28;20442;-69
2023/03/21 09:44:31;;;;;;;0.73;0.73;;;;;;;;;;5028064;28;20489;-69
2023/03/21 09:47:14;;;;;;;0.65;0.65;;;;;;;;;;5029905;28;20957;-69
2023/03/21 09:49:48;;;;;;;1.02;0.93;;;;;;;;;;5029553;28;20439;-69
2023/03/21 09:52:27;;;;;;;0.70;0.70;;;;;;;;;;5028761;28;20521;-69
2023/03/21 09:54:55;;;;;;;1.10;1.05;;;;;;;;;;5029212;28;20431;-69
2023/03/21 09:57:31;;;;;;;0.85;0.80;;;;;;;;;;5028083;28;20668;-69
2023/03/21 10:00:10;;;;;;;3.03;0.73;;;;;;;;;;5030118;28;20426;-69
2023/03/21 10:02:39;;;;;;;0.65;0.65;;;;;;;;;;5027349;28;20434;-69
2023/03/21 10:05:12;;;;;;;0.60;0.60;;;;;;;;;;5028044;28;20941;-69
2023/03/21 10:07:41;;;;;;;0.70;0.70;;;;;;;;;;5029604;28;20485;-69
2023/03/21 10:10:16;;;;;;;0.88;0.80;;;;;;;;;;5027648;28;20520;-69
2023/03/21 10:12:46;;;;;;;0.40;0.40;;;;;;;;;;5029616;28;20452;-69
2023/03/21 10:15:21;;;;;;;0.75;0.75;;;;;;;;;;5029052;28;20427;-69
2023/03/21 10:17:54;;;;;;;0.93;0.82;;;;;;;;;;5029193;28;21315;-69
2023/03/21 10:20:21;;;;;;;0.55;0.55;;;;;;;;;;5029453;28;20439;-69
2023/03/21 10:22:49;;;;;;;2.00;0.93;;;;;;;;;;5027671;28;20546;-69
2023/03/21 10:25:20;;;;;;;1.17;0.90;;;;;;;;;;5028794;28;20517;-69
2023/03/21 10:27:50;;;;;;;1.50;1.00;;;;;;;;;;5026892;28;20431;-69
2023/03/21 10:30:37;;;;;;;0.60;0.60;;;;;;;;;;5029147;28;20441;-69
2023/03/21 10:33:08;;;;;;;2.10;0.63;;;;;;;;;;5029309;28;20496;-69
2023/03/21 10:35:36;;;;;;;0.40;0.40;;;;;;;;;;5029204;28;20438;-69
2023/03/21 10:38:05;;;;;;;1.08;0.60;;;;;;;;;;5027247;28;20431;-69
2023/03/21 10:40:32;;;;;;;1.20;1.10;;;;;;;;;;5029416;28;20824;-69
2023/03/21 10:43:21;;;;;;;0.90;0.90;;;;;;;;;;5029311;28;21089;-68
2023/03/21 10:45:55;;;;;;;0.55;0.55;;;;;;;;;;5029178;28;20441;-68
2023/03/21 10:48:23;;;;;;;0.60;0.60;;;;;;;;;;5029451;28;20449;-68
2023/03/21 10:50:55;;;;;;;6.70;0.75;;;;;;;;;;5029530;28;20431;-68
2023/03/21 10:53:42;;;;;;;0.70;0.65;;;;;;;;;;5029167;28;20441;-68
2023/03/21 10:56:11;;;;;;;0.60;0.60;;;;;;;;;;5026815;28;20435;-68
2023/03/21 10:58:41;;;;;;;0.77;0.77;;;;;;;;;;5027214;28;20431;-68
2023/03/21 11:01:13;;;;;;;0.52;0.52;;;;;;;;;;5030257;28;20473;-68
2023/03/21 11:03:45;;;;;;;0.80;0.80;;;;;;;;;;5030402;28;20430;-68
2023/03/21 11:06:26;;;;;;;0.40;0.40;;;;;;;;;;5031809;28;20453;-68
2023/03/21 11:08:55;;;;;;;0.55;0.52;;;;;;;;;;5033151;28;20512;-68
2023/03/21 11:11:26;;;;;;;0.60;0.60;;;;;;;;;;5031514;28;20438;-68
2023/03/21 11:14:05;;;;;;;0.60;0.60;;;;;;;;;;5032571;28;20430;-69
2023/03/21 11:16:40;;;;;;;0.50;0.50;;;;;;;;;;5031401;28;20687;-68
2023/03/21 11:19:15;;;;;;;1.38;0.80;;;;;;;;;;5032901;28;20430;-68
2023/03/21 11:21:45;;;;;;;0.43;0.43;;;;;;;;;;5032989;28;20431;-67
2023/03/21 11:24:14;;;;;;;0.60;0.60;;;;;;;;;;5032214;28;20430;-67
2023/03/21 11:26:44;;;;;;;0.70;0.70;;;;;;;;;;5031590;28;20431;-68
2023/03/21 11:29:26;;;;;;;1.02;0.68;;;;;;;;;;5032592;28;20434;-67
2023/03/21 11:32:01;;;;;;;0.88;0.88;;;;;;;;;;5030993;28;20442;-67
2023/03/21 11:34:32;;;;;;;0.50;0.50;;;;;;;;;;5032387;28;20467;-67
2023/03/21 11:37:06;;;;;;;0.60;0.60;;;;;;;;;;5032205;28;20438;-67
2023/03/21 11:39:39;;;;;;;1.10;1.00;;;;;;;;;;5031359;28;20449;-67
2023/03/21 11:42:25;;;;;;;1.23;1.13;;;;;;;;;;5032720;28;20517;-66
2023/03/21 11:45:03;;;;;;;0.85;0.82;;;;;;;;;;5030900;28;20442;-66
2023/03/21 11:47:31;;;;;;;1.03;0.60;;;;;;;;;;5031185;28;20902;-66
2023/03/21 11:49:58;;;;;;;1.30;0.97;;;;;;;;;;5030873;28;20430;-66
2023/03/21 11:52:43;;;;;;;1.17;1.07;;;;;;;;;;5030623;28;20435;-66
2023/03/21 11:55:10;;;;;;;3.50;0.80;;;;;;;;;;5029726;28;20454;-66
2023/03/21 11:57:56;;;;;;;0.60;0.60;;;;;;;;;;5030164;28;20435;-67
2023/03/21 12:00:30;;;;;;;2.50;0.90;;;;;;;;;;5012382;28;20439;-67
2023/03/21 12:03:15;;;;;;;0.73;0.70;;;;;;;;;;5020271;28;20576;-67
2023/03/21 12:05:50;;;;;;;0.55;0.55;;;;;;;;;;5031709;28;20441;-67
2023/03/21 12:08:36;;;;;;;0.50;0.50;;;;;;;;;;5031706;28;20944;-67
2023/03/21 12:11:06;;;;;;;0.30;0.30;;;;;;;;;;5030143;28;21027;-68
2023/03/21 12:13:33;;;;;;;0.57;0.57;;;;;;;;;;5031485;28;20441;-68
2023/03/21 12:16:07;;;;;;;0.60;0.50;;;;;;;;;;5031566;28;20454;-68
2023/03/21 12:18:43;;;;;;;0.55;0.55;;;;;;;;;;5031997;28;20917;-68
2023/03/21 12:21:16;;;;;;;2.20;0.65;;;;;;;;;;5030061;28;20510;-68
2023/03/21 12:24:06;;;;;;;0.50;0.50;;;;;;;;;;5030465;28;20769;-68
2023/03/21 12:26:52;;;;;;;0.65;0.65;;;;;;;;;;5031700;28;20437;-68
2023/03/21 12:29:22;;;;;;;1.80;0.73;;;;;;;;;;5031542;28;20431;-67
2023/03/21 12:32:00;;;;;;;0.60;0.52;;;;;;;;;;5030047;28;20821;-68
2023/03/21 12:34:46;;;;;;;0.40;0.40;;;;;;;;;;5030994;28;20431;-68
2023/03/21 12:37:20;;;;;;;0.80;0.80;;;;;;;;;;5028780;28;20443;-68
2023/03/21 12:39:48;;;;;;;0.60;0.60;;;;;;;;;;5031329;28;20435;-67
2023/03/21 12:42:34;;;;;;;0.88;0.82;;;;;;;;;;5029837;28;21044;-68
2023/03/21 12:45:07;;;;;;;0.65;0.60;;;;;;;;;;5030736;28;20449;-67
2023/03/21 12:47:45;;;;;;;0.40;0.40;;;;;;;;;;5030986;28;20488;-67
2023/03/21 12:50:14;;;;;;;0.57;0.57;;;;;;;;;;5031173;28;20438;-67
2023/03/21 12:52:44;;;;;;;0.60;0.60;;;;;;;;;;5028923;28;20989;-67
2023/03/21 12:55:16;;;;;;;0.55;0.55;;;;;;;;;;5030357;28;20435;-67
2023/03/21 12:58:10;;;;;;;0.88;0.88;;;;;;;;;;5031078;28;20571;-67
2023/03/21 13:00:43;;;;;;;0.50;0.50;;;;;;;;;;5030837;28;20841;-67
2023/03/21 13:03:12;;;;;;;0.68;0.68;;;;;;;;;;5030741;28;20439;-67
2023/03/21 13:05:51;;;;;;;1.30;1.00;;;;;;;;;;5029112;28;20431;-67
2023/03/21 13:08:21;;;;;;;0.60;0.60;;;;;;;;;;5029001;28;20450;-67
2023/03/21 13:10:48;;;;;;;0.70;0.70;;;;;;;;;;5030905;28;20431;-67
2023/03/21 13:13:33;;;;;;;0.47;0.47;;;;;;;;;;5029449;28;20530;-67
2023/03/21 13:16:26;;;;;;;4.22;0.45;;;;;;;;;;5030537;28;20497;-67
2023/03/21 13:19:12;;;;;;;1.55;0.60;;;;;;;;;;5025276;28;20474;-66
2023/03/21 13:22:05;;;;;;;0.70;0.70;;;;;;;;;;5030554;28;20987;-66
2023/03/21 13:24:42;;;;;;;1.02;0.90;;;;;;;;;;5029709;28;20790;-67
2023/03/21 13:27:29;;;;;;;0.40;0.40;;;;;;;;;;5028055;28;20516;-67
2023/03/21 13:30:03;;;;;;;0.80;0.80;;;;;;;;;;5030229;28;20439;-67
2023/03/21 13:32:33;;;;;;;0.65;0.65;;;;;;;;;;5030836;28;20470;-67
2023/03/21 13:35:08;;;;;;;0.85;0.80;;;;;;;;;;5030112;28;20439;-67
2023/03/21 13:37:40;;;;;;;3.08;0.88;;;;;;;;;;5028575;28;20435;-67
2023/03/21 13:40:24;;;;;;;0.70;0.70;;;;;;;;;;5028560;28;20560;-67
2023/03/21 13:42:52;;;;;;;0.98;0.95;;;;;;;;;;5029936;28;20435;-67
2023/03/21 13:45:25;;;;;;;0.70;0.70;;;;;;;;;;5027849;28;20427;-67
2023/03/21 13:47:52;;;;;;;2.80;0.60;;;;;;;;;;5030293;28;20798;-67
2023/03/21 13:50:22;;;;;;;1.42;1.00;;;;;;;;;;5026739;28;20914;-67
2023/03/21 13:53:13;;;;;;;1.80;1.13;;;;;;;;;;5028445;28;20461;-67
2023/03/21 13:55:44;;;;;;;1.00;1.00;;;;;;;;;;5028692;28;21014;-67
2023/03/21 13:58:24;;;;;;;1.40;1.10;;;;;;;;;;5030178;28;20430;-67
2023/03/21 14:01:09;;;;;;;0.65;0.65;;;;;;;;;;5029136;28;20853;-67
2023/03/21 14:03:38;;;;;;;0.73;0.73;;;;;;;;;;5012045;28;20493;-67
2023/03/21 14:06:06;;;;;;;1.27;1.17;;;;;;;;;;5016673;28;20453;-67
2023/03/21 14:08:35;;;;;;;1.00;1.00;;;;;;;;;;5028554;28;20526;-67
2023/03/21 14:11:09;;;;;;;1.30;0.80;;;;;;;;;;5028437;28;20435;-67
2023/03/21 14:13:37;;;;;;;2.00;1.05;;;;;;;;;;5028638;28;20439;-67
2023/03/21 14:16:22;;;;;;;0.70;0.70;;;;;;;;;;5026897;28;20438;-66
2023/03/21 14:19:00;;;;;;;0.80;0.80;;;;;;;;;;5029779;28;20434;-66
2023/03/21 14:21:34;;;;;;;0.80;0.80;;;;;;;;;;5029673;28;20550;-66
2023/03/21 14:24:05;;;;;;;0.90;0.90;;;;;;;;;;5029226;28;20513;-66
2023/03/21 14:26:38;;;;;;;2.38;1.15;;;;;;;;;;5029381;28;20449;-66
2023/03/21 14:29:09;;;;;;;1.08;0.85;;;;;;;;;;5027182;28;20434;-66
2023/03/21 14:31:52;;;;;;;0.88;0.88;;;;;;;;;;5029502;28;20431;-66
2023/03/21 14:34:31;;;;;;;0.73;0.70;;;;;;;;;;5028604;28;20431;-66
2023/03/21 14:36:58;;;;;;;0.95;0.95;;;;;;;;;;5029115;28;20441;-65
2023/03/21 14:39:29;;;;;;;3.10;1.10;;;;;;;;;;5029790;28;20898;-65
2023/03/21 14:42:01;;;;;;;0.73;0.73;;;;;;;;;;5029741;28;20439;-66
2023/03/21 14:44:44;;;;;;;0.80;0.80;;;;;;;;;;5027481;28;20436;-65
2023/03/21 14:47:28;;;;;;;2.33;1.45;;;;;;;;;;5029382;28;20453;-66
2023/03/21 14:49:59;;;;;;;1.40;1.00;;;;;;;;;;5027208;28;20435;-65
2023/03/21 14:52:29;;;;;;;1.73;1.10;;;;;;;;;;5029339;28;20514;-65
2023/03/21 14:54:57;;;;;;;0.88;0.88;;;;;;;;;;5028602;28;20441;-65
2023/03/21 14:57:28;;;;;;;1.10;1.00;;;;;;;;;;5026568;28;20438;-65
2023/03/21 15:00:13;;;;;;;0.90;0.90;;;;;;;;;;5029111;28;20438;-65
2023/03/21 15:02:41;;;;;;;0.65;0.65;;;;;;;;;;5027623;28;20437;-64
2023/03/21 15:05:08;;;;;;;1.77;1.15;;;;;;;;;;5028802;28;20441;-64
2023/03/21 15:07:36;;;;;;;1.13;1.13;;;;;;;;;;5027265;28;20474;-66
2023/03/21 15:10:07;;;;;;;0.90;0.90;;;;;;;;;;5028161;28;20538;-65